Lost Springs, Wyoming
Current Conditions -  °F | °C
As of 1:53 AM on Friday 24 Oct 2014 (Local Time) from KDGW Reporting Station
Clear Clear  
Wind Chill: 56°   Ceiling: Unl
Heat Index: 56°   Visibility: 10mi
Dew Point: 27°   Wind: 6mph
Humidity: 33%   Direction: 250°WSW
Pressure: 30.04"   Gusts: NA
Location:  42.77°N, 104.93°W
Report Text: KDGW 240753Z AUTO 25005KT 10SM CLR 13/M03 A3004 RMK AO2 SLP125 T01331028
Loading
Personal Weather Stations






























Interactive Weather Map
Tropical Storm Tracking
New forecast layout! Learn more

10-Day Weather Forecast

Advertisements
Track Severe Weather on mobile